createdAt,value
2017-12-10T00:01:44.813Z,2.00
2017-12-10T00:04:12.297Z,2.00
2017-12-10T00:06:39.801Z,2.00
2017-12-10T00:09:07.321Z,2.00
2017-12-10T00:11:34.737Z,2.10
2017-12-10T00:14:02.925Z,2.00
2017-12-10T00:16:31.142Z,2.10
2017-12-10T00:18:58.603Z,2.00
2017-12-10T00:21:26.061Z,2.10
2017-12-10T00:23:53.964Z,2.10
2017-12-10T00:26:21.383Z,2.10
2017-12-10T00:28:48.801Z,2.10
2017-12-10T00:31:16.322Z,2.10
2017-12-10T00:33:43.788Z,2.10
2017-12-10T00:36:11.238Z,2.10
2017-12-10T00:38:38.654Z,2.10
2017-12-10T00:41:06.881Z,2.10
2017-12-10T00:43:34.340Z,2.10
2017-12-10T00:46:01.742Z,2.10
2017-12-10T00:48:29.270Z,2.20
2017-12-10T00:50:56.727Z,2.20
2017-12-10T00:53:24.185Z,2.10
2017-12-10T00:55:51.615Z,2.10
2017-12-10T00:58:19.822Z,2.10
2017-12-10T01:00:47.285Z,2.10
2017-12-10T01:03:14.721Z,2.10
2017-12-10T01:05:42.214Z,2.10
2017-12-10T01:08:09.669Z,2.10
2017-12-10T01:10:37.157Z,2.20
2017-12-10T01:13:04.589Z,2.10
2017-12-10T01:15:32.017Z,2.10
2017-12-10T01:18:00.198Z,2.20
2017-12-10T01:20:28.409Z,2.20
2017-12-10T01:22:55.826Z,2.10
2017-12-10T01:25:24.024Z,2.10
2017-12-10T01:27:51.526Z,2.10
2017-12-10T01:30:18.945Z,2.10
2017-12-10T01:32:46.361Z,2.20
2017-12-10T01:35:13.790Z,2.20
2017-12-10T01:37:41.221Z,2.20
2017-12-10T01:40:09.429Z,2.20
2017-12-10T01:42:36.851Z,2.20
2017-12-10T01:45:05.037Z,2.30
2017-12-10T01:47:33.219Z,2.30
2017-12-10T01:50:00.743Z,2.30
2017-12-10T01:52:28.161Z,2.30
2017-12-10T01:54:55.589Z,2.30
2017-12-10T01:57:23.806Z,2.30
2017-12-10T01:59:51.282Z,2.30
2017-12-10T02:02:18.702Z,2.30
2017-12-10T02:04:46.125Z,2.30
2017-12-10T02:07:13.545Z,2.30
2017-12-10T02:09:41.053Z,2.40
2017-12-10T02:12:08.578Z,2.30
2017-12-10T02:14:36.037Z,2.30
2017-12-10T02:17:03.461Z,2.40
2017-12-10T02:19:31.682Z,2.40
2017-12-10T02:21:59.136Z,2.40
2017-12-10T02:24:26.577Z,2.40
2017-12-10T02:26:54.001Z,2.40
2017-12-10T02:29:21.422Z,2.40
2017-12-10T02:31:49.762Z,2.50
2017-12-10T02:34:17.945Z,2.40
2017-12-10T02:36:46.162Z,2.40
2017-12-10T02:39:13.633Z,2.40
2017-12-10T02:41:41.041Z,2.50
2017-12-10T02:44:09.262Z,2.50
2017-12-10T02:46:36.717Z,2.50
2017-12-10T02:49:04.177Z,2.50
2017-12-10T02:51:31.641Z,2.50
2017-12-10T02:53:59.154Z,2.30
2017-12-10T02:56:27.382Z,2.30
2017-12-10T02:58:54.842Z,2.20
2017-12-10T03:01:22.311Z,2.30
2017-12-10T03:03:49.769Z,2.30
2017-12-10T03:06:17.206Z,2.40
2017-12-10T03:08:44.779Z,2.30
2017-12-10T03:11:12.945Z,2.40
2017-12-10T03:13:40.424Z,2.30
2017-12-10T03:16:07.889Z,2.30
2017-12-10T03:18:35.356Z,2.30
2017-12-10T03:21:02.802Z,2.30
2017-12-10T03:23:30.994Z,2.20
2017-12-10T03:25:58.449Z,2.20
2017-12-10T03:28:25.865Z,2.20
2017-12-10T03:30:54.070Z,2.30
2017-12-10T03:33:21.548Z,2.30
2017-12-10T03:35:49.018Z,2.30
2017-12-10T03:38:16.478Z,2.30
2017-12-10T03:40:43.933Z,2.30
2017-12-10T03:43:11.393Z,2.30
2017-12-10T03:45:38.818Z,2.40
2017-12-10T03:48:07.124Z,2.30
2017-12-10T03:50:34.582Z,2.20
2017-12-10T03:53:01.998Z,2.20
2017-12-10T03:55:29.469Z,2.20
2017-12-10T03:57:56.885Z,2.20
2017-12-10T04:00:24.339Z,2.10
2017-12-10T04:02:51.896Z,2.20
2017-12-10T04:05:20.105Z,2.10
2017-12-10T04:07:47.565Z,2.10
2017-12-10T04:10:15.798Z,2.10
2017-12-10T04:12:43.217Z,2.10
2017-12-10T04:15:10.654Z,2.20
2017-12-10T04:17:38.082Z,2.10
2017-12-10T04:20:06.259Z,2.10
2017-12-10T04:22:33.741Z,2.10
2017-12-10T04:25:01.214Z,2.10
2017-12-10T04:27:28.641Z,2.10
2017-12-10T04:29:56.126Z,2.10
2017-12-10T04:32:23.553Z,2.10
2017-12-10T04:34:51.802Z,2.30
2017-12-10T04:37:19.329Z,2.20
2017-12-10T04:39:46.750Z,2.20
2017-12-10T04:42:14.965Z,2.20
2017-12-10T04:44:42.474Z,2.20
2017-12-10T04:47:09.889Z,2.20
2017-12-10T04:49:37.354Z,2.20
2017-12-10T04:52:04.821Z,2.30
2017-12-10T04:54:32.245Z,2.30
2017-12-10T04:57:00.438Z,2.30
2017-12-10T04:59:27.918Z,2.30
2017-12-10T05:01:55.346Z,2.30
2017-12-10T05:04:23.525Z,2.30
2017-12-10T05:06:51.014Z,2.30
2017-12-10T05:09:18.476Z,2.30
2017-12-10T05:11:45.930Z,2.30
2017-12-10T05:14:13.350Z,2.20
2017-12-10T05:16:41.581Z,2.30
2017-12-10T05:19:09.038Z,2.20
2017-12-10T05:21:36.500Z,2.20
2017-12-10T05:24:03.961Z,2.30
2017-12-10T05:26:31.422Z,2.20
2017-12-10T05:28:58.840Z,2.30
2017-12-10T05:31:27.058Z,2.30
2017-12-10T05:33:54.524Z,2.20
2017-12-10T05:36:21.941Z,2.20
2017-12-10T05:38:50.165Z,2.20
2017-12-10T05:41:17.602Z,2.10
2017-12-10T05:43:45.022Z,2.10
2017-12-10T05:46:12.445Z,2.10
2017-12-10T05:48:39.901Z,2.10
2017-12-10T05:51:07.332Z,2.00
2017-12-10T05:53:35.621Z,2.00
2017-12-10T05:56:03.041Z,1.90
2017-12-10T05:58:30.569Z,1.90
2017-12-10T06:00:57.993Z,1.90
2017-12-10T06:03:26.182Z,1.90
2017-12-10T06:05:53.608Z,1.90
2017-12-10T06:08:21.137Z,1.90
2017-12-10T06:10:48.553Z,1.80
2017-12-10T06:13:16.750Z,1.80
2017-12-10T06:15:44.228Z,1.80
2017-12-10T06:18:11.657Z,1.70
2017-12-10T06:20:39.842Z,1.90
2017-12-10T06:23:07.268Z,1.90
2017-12-10T06:25:34.790Z,1.90
2017-12-10T06:28:02.261Z,1.90
2017-12-10T06:30:29.719Z,1.90
2017-12-10T06:32:57.177Z,1.90
2017-12-10T06:35:24.642Z,1.90
2017-12-10T06:37:52.081Z,1.90
2017-12-10T06:40:19.559Z,1.90
2017-12-10T06:42:47.024Z,1.90
2017-12-10T06:45:14.434Z,1.90
2017-12-10T06:47:42.662Z,2.00
2017-12-10T06:50:10.966Z,1.90
2017-12-10T06:52:38.389Z,2.00
2017-12-10T06:55:05.802Z,2.00
2017-12-10T06:57:33.225Z,2.00
2017-12-10T07:00:00.776Z,2.10
2017-12-10T07:02:28.251Z,2.10
2017-12-10T07:04:55.714Z,2.00
2017-12-10T07:07:23.178Z,2.00
2017-12-10T07:09:50.643Z,2.00
2017-12-10T07:12:18.094Z,1.90
2017-12-10T07:14:45.520Z,2.00
2017-12-10T07:17:13.754Z,2.10
2017-12-10T07:19:41.194Z,2.00
2017-12-10T07:22:08.658Z,2.10
2017-12-10T07:24:36.077Z,2.00
2017-12-10T07:27:04.325Z,2.00
2017-12-10T07:29:31.744Z,2.00
2017-12-10T07:31:59.169Z,1.90
2017-12-10T07:34:27.351Z,1.90
2017-12-10T07:36:55.546Z,2.00
2017-12-10T07:39:23.039Z,2.00
2017-12-10T07:41:50.500Z,1.90
2017-12-10T07:44:18.821Z,1.90
2017-12-10T07:46:46.251Z,1.90
2017-12-10T07:49:13.705Z,1.80
2017-12-10T07:51:41.131Z,1.90
2017-12-10T07:54:09.341Z,2.00
2017-12-10T07:56:36.865Z,2.00
2017-12-10T07:59:05.094Z,2.00
2017-12-10T08:01:32.508Z,2.00
2017-12-10T08:04:00.058Z,2.10
2017-12-10T08:06:28.242Z,2.00
2017-12-10T08:08:56.456Z,2.00
2017-12-10T08:11:23.869Z,2.00
2017-12-10T08:13:52.070Z,2.00
2017-12-10T08:16:19.489Z,2.00
2017-12-10T08:18:46.926Z,2.00
2017-12-10T08:21:14.361Z,2.00
2017-12-10T08:23:41.842Z,2.00
2017-12-10T08:26:09.261Z,2.00
2017-12-10T08:28:37.458Z,2.10
2017-12-10T08:31:04.947Z,2.10
2017-12-10T08:33:32.381Z,2.00
2017-12-10T08:35:59.801Z,2.00
2017-12-10T08:38:27.237Z,2.00
2017-12-10T08:40:54.681Z,2.00
2017-12-10T08:43:22.101Z,2.00
2017-12-10T08:45:50.285Z,2.00
2017-12-10T08:48:18.486Z,2.10
2017-12-10T08:50:45.888Z,2.10
2017-12-10T08:53:13.315Z,2.20
2017-12-10T08:55:40.744Z,2.10
2017-12-10T08:58:08.929Z,2.20
2017-12-10T09:00:36.418Z,2.20
2017-12-10T09:03:03.865Z,2.30
2017-12-10T09:05:31.277Z,2.20
2017-12-10T09:07:59.610Z,2.20
2017-12-10T09:10:27.778Z,2.10
2017-12-10T09:12:55.257Z,2.10
2017-12-10T09:15:22.680Z,2.10
2017-12-10T09:17:50.873Z,2.20
2017-12-10T09:20:18.292Z,2.20
2017-12-10T09:22:45.821Z,2.20
2017-12-10T09:25:13.281Z,2.30
2017-12-10T09:27:40.709Z,2.30
2017-12-10T09:30:08.927Z,2.30
2017-12-10T09:32:36.345Z,2.30
2017-12-10T09:35:04.558Z,2.40
2017-12-10T09:37:31.981Z,2.30
2017-12-10T09:40:00.201Z,2.40
2017-12-10T09:42:27.661Z,2.30
2017-12-10T09:44:55.077Z,2.50
2017-12-10T09:47:23.265Z,2.50
2017-12-10T09:49:51.463Z,2.50
2017-12-10T09:52:18.942Z,2.50
2017-12-10T09:54:46.370Z,2.50
2017-12-10T09:57:14.585Z,2.50
2017-12-10T09:59:42.054Z,2.50
2017-12-10T10:02:09.489Z,2.50
2017-12-10T10:04:36.908Z,2.60
2017-12-10T10:07:04.326Z,2.60
2017-12-10T10:09:31.782Z,2.70
2017-12-10T10:11:59.203Z,2.70
2017-12-10T10:14:27.413Z,2.60
2017-12-10T10:16:54.830Z,2.60
2017-12-10T10:19:22.342Z,2.60
2017-12-10T10:21:49.762Z,2.60
2017-12-10T10:24:17.981Z,2.70
2017-12-10T10:26:45.446Z,2.70
2017-12-10T10:29:12.901Z,2.70
2017-12-10T10:31:40.330Z,2.60
2017-12-10T10:34:08.545Z,2.70
2017-12-10T10:36:35.981Z,2.60
2017-12-10T10:39:03.401Z,2.60
2017-12-10T10:41:30.826Z,2.70
2017-12-10T10:43:58.249Z,2.70
2017-12-10T10:46:26.441Z,2.60
2017-12-10T10:48:53.895Z,2.60
2017-12-10T10:51:21.284Z,2.60
2017-12-10T10:53:48.758Z,2.70
2017-12-10T10:56:16.189Z,2.60
2017-12-10T10:58:43.601Z,2.60
2017-12-10T11:01:11.133Z,2.60
2017-12-10T11:03:38.569Z,2.60
2017-12-10T11:06:06.054Z,2.40
2017-12-10T11:08:33.509Z,2.40
2017-12-10T11:11:00.986Z,2.40
2017-12-10T11:13:28.458Z,2.30
2017-12-10T11:15:55.857Z,2.20
2017-12-10T11:18:24.058Z,2.00
2017-12-10T11:20:51.533Z,2.00
2017-12-10T11:23:18.958Z,2.00
2017-12-10T11:25:47.179Z,2.00
2017-12-10T11:28:14.640Z,2.00
2017-12-10T11:30:42.736Z,1.90
2017-12-10T11:33:10.196Z,1.80
2017-12-10T11:35:37.633Z,1.70
2017-12-10T11:38:05.053Z,1.70
2017-12-10T11:40:33.241Z,1.70
2017-12-10T11:43:01.432Z,1.70
2017-12-10T11:45:28.926Z,1.70
2017-12-10T11:47:56.345Z,1.60
2017-12-10T11:50:24.534Z,1.70
2017-12-10T11:52:52.023Z,1.70
2017-12-10T11:55:19.567Z,1.50
2017-12-10T11:57:47.037Z,1.50
2017-12-10T12:00:14.498Z,1.40
2017-12-10T12:02:42.054Z,1.20
2017-12-10T12:05:09.525Z,1.20
2017-12-10T12:07:36.947Z,1.20
2017-12-10T12:10:05.164Z,1.10
2017-12-10T12:12:32.622Z,1.10
2017-12-10T12:15:00.081Z,1.00
2017-12-10T12:17:27.502Z,1.10
2017-12-10T12:19:55.692Z,1.10
2017-12-10T12:22:23.927Z,1.00
2017-12-10T12:24:51.345Z,1.00
2017-12-10T12:27:18.825Z,1.00
2017-12-10T12:29:46.314Z,0.90
2017-12-10T12:32:13.756Z,1.00
2017-12-10T12:34:41.177Z,0.90
2017-12-10T12:37:09.366Z,0.90
2017-12-10T12:39:36.789Z,0.90
2017-12-10T12:42:04.213Z,0.90
2017-12-10T12:44:31.674Z,0.90
2017-12-10T12:46:59.093Z,0.90
2017-12-10T12:49:27.316Z,0.80
2017-12-10T12:51:54.758Z,0.80
2017-12-10T12:54:22.181Z,0.80
2017-12-10T12:56:50.366Z,0.90
2017-12-10T12:59:18.584Z,0.90
2017-12-10T13:01:46.002Z,0.90
2017-12-10T13:04:14.230Z,0.80
2017-12-10T13:06:41.684Z,0.90
2017-12-10T13:09:09.173Z,0.90
2017-12-10T13:11:36.621Z,0.90
2017-12-10T13:14:04.050Z,0.80
2017-12-10T13:16:31.484Z,0.70
2017-12-10T13:18:59.686Z,0.80
2017-12-10T13:21:27.230Z,0.80
2017-12-10T13:23:54.592Z,0.80
2017-12-10T13:26:22.783Z,0.80
2017-12-10T13:28:50.283Z,0.80
2017-12-10T13:31:17.750Z,0.90
2017-12-10T13:33:45.200Z,0.80
2017-12-10T13:36:12.657Z,0.70
2017-12-10T13:38:40.122Z,0.80
2017-12-10T13:41:07.541Z,0.70
2017-12-10T13:43:35.750Z,0.70
2017-12-10T13:46:03.183Z,0.70
2017-12-10T13:48:31.374Z,0.70
2017-12-10T13:50:58.789Z,0.70
2017-12-10T13:53:26.209Z,0.70
2017-12-10T13:55:53.677Z,0.70
2017-12-10T13:58:21.138Z,0.70
2017-12-10T14:00:48.597Z,0.70
2017-12-10T14:03:16.970Z,0.80
2017-12-10T14:05:44.413Z,0.80
2017-12-10T14:08:11.851Z,0.80
2017-12-10T14:10:39.273Z,0.80
2017-12-10T14:13:06.825Z,0.90
2017-12-10T14:15:34.302Z,0.90
2017-12-10T14:18:01.714Z,0.90
2017-12-10T14:20:29.909Z,0.90
2017-12-10T14:22:57.324Z,0.90
2017-12-10T14:25:24.798Z,0.90
2017-12-10T14:27:52.205Z,0.90
2017-12-10T14:30:19.670Z,0.90
2017-12-10T14:32:47.129Z,1.00
2017-12-10T14:35:14.603Z,1.00
2017-12-10T14:37:46.969Z,0.90
2017-12-10T14:40:14.425Z,1.00
2017-12-10T14:42:41.883Z,1.00
2017-12-10T14:45:09.310Z,1.00
2017-12-10T14:47:37.500Z,1.10
2017-12-10T14:50:05.002Z,1.10
2017-12-10T14:52:32.444Z,1.00
2017-12-10T14:54:59.918Z,1.00
2017-12-10T14:57:27.365Z,1.10
2017-12-10T14:59:54.856Z,1.10
2017-12-10T15:02:22.254Z,1.10
2017-12-10T15:04:50.474Z,1.10
2017-12-10T15:07:17.898Z,1.10
2017-12-10T15:09:46.128Z,1.30
2017-12-10T15:12:13.637Z,1.30
2017-12-10T15:14:41.821Z,1.20
2017-12-10T15:17:09.798Z,1.20
2017-12-10T15:19:37.216Z,1.40
2017-12-10T15:22:04.643Z,1.40
2017-12-10T15:24:32.121Z,1.50
2017-12-10T15:26:59.566Z,1.60
2017-12-10T15:29:27.009Z,1.60
2017-12-10T15:31:54.495Z,1.60
2017-12-10T15:34:21.922Z,1.60
2017-12-10T15:36:50.130Z,1.90
2017-12-10T15:39:17.632Z,1.90
2017-12-10T15:41:45.057Z,1.90
2017-12-10T15:44:12.487Z,1.90
2017-12-10T15:46:40.024Z,2.00
2017-12-10T15:49:07.537Z,2.00
2017-12-10T15:51:35.045Z,2.10
2017-12-10T15:54:02.561Z,2.20
2017-12-10T15:56:30.021Z,2.20
2017-12-10T15:58:57.543Z,2.30
2017-12-10T16:01:25.770Z,2.40
2017-12-10T16:03:53.189Z,2.40
2017-12-10T16:06:21.405Z,2.60
2017-12-10T16:08:48.831Z,2.60
2017-12-10T16:11:17.026Z,2.60
2017-12-10T16:13:44.453Z,2.50
2017-12-10T16:16:12.682Z,2.70
2017-12-10T16:18:40.098Z,2.60
2017-12-10T16:21:08.289Z,2.70
2017-12-10T16:23:35.782Z,2.70
2017-12-10T16:26:03.202Z,2.70
2017-12-10T16:28:31.553Z,2.80
2017-12-10T16:30:58.982Z,2.80
2017-12-10T16:33:26.393Z,2.90
2017-12-10T16:35:54.628Z,2.80
2017-12-10T16:38:22.082Z,2.80
2017-12-10T16:40:49.561Z,2.90
2017-12-10T16:43:17.005Z,2.90
2017-12-10T16:45:44.437Z,2.90
2017-12-10T16:48:11.931Z,3.00
2017-12-10T16:50:39.386Z,3.00
2017-12-10T16:53:06.854Z,3.00
2017-12-10T16:55:34.309Z,3.10
2017-12-10T16:58:01.742Z,3.20
2017-12-10T17:00:29.922Z,3.30
2017-12-10T17:02:57.353Z,3.20
2017-12-10T17:05:24.766Z,3.20
2017-12-10T17:07:52.198Z,3.30
2017-12-10T17:10:20.377Z,3.40
2017-12-10T17:12:48.589Z,3.50
2017-12-10T17:15:16.046Z,3.50
2017-12-10T17:17:43.511Z,3.50
2017-12-10T17:20:10.977Z,3.60
2017-12-10T17:22:38.437Z,3.70
2017-12-10T17:25:05.860Z,3.70
2017-12-10T17:27:34.044Z,3.70
2017-12-10T17:30:01.481Z,3.70
2017-12-10T17:32:28.999Z,3.70
2017-12-10T17:34:56.426Z,3.70
2017-12-10T17:37:23.860Z,3.70
2017-12-10T17:39:52.203Z,3.80
2017-12-10T17:42:19.630Z,3.80
2017-12-10T17:44:47.117Z,3.80
2017-12-10T17:47:14.677Z,3.90
2017-12-10T17:49:42.135Z,4.00
2017-12-10T17:52:09.607Z,4.00
2017-12-10T17:54:37.029Z,4.10
2017-12-10T17:57:04.467Z,4.30
2017-12-10T17:59:33.436Z,4.30
2017-12-10T18:02:00.869Z,4.30
2017-12-10T18:04:28.350Z,4.30
2017-12-10T18:06:55.769Z,4.40
2017-12-10T18:09:23.977Z,4.20
2017-12-10T18:11:51.454Z,4.20
2017-12-10T18:14:18.895Z,4.20
2017-12-10T18:16:47.084Z,4.10
2017-12-10T18:19:14.502Z,4.10
2017-12-10T18:21:42.693Z,4.00
2017-12-10T18:24:10.122Z,4.00
2017-12-10T18:26:37.545Z,4.00
2017-12-10T18:29:05.006Z,4.00
2017-12-10T18:31:32.454Z,4.00
2017-12-10T18:34:00.647Z,4.10
2017-12-10T18:36:28.102Z,4.10
2017-12-10T18:38:55.561Z,4.10
2017-12-10T18:41:22.977Z,4.10
2017-12-10T18:43:51.161Z,4.10
2017-12-10T18:46:19.387Z,4.10
2017-12-10T18:48:46.818Z,4.10
2017-12-10T18:51:14.295Z,4.10
2017-12-10T18:53:41.781Z,4.10
2017-12-10T18:56:09.226Z,4.10
2017-12-10T18:58:36.645Z,4.20
2017-12-10T19:01:04.828Z,4.20
2017-12-10T19:03:33.017Z,4.20
2017-12-10T19:06:00.433Z,4.20
2017-12-10T19:08:27.882Z,4.30
2017-12-10T19:10:55.315Z,4.30
2017-12-10T19:13:22.898Z,4.40
2017-12-10T19:15:50.316Z,4.40
2017-12-10T19:18:17.834Z,4.40
2017-12-10T19:20:45.366Z,4.50
2017-12-10T19:23:12.839Z,4.50
2017-12-10T19:25:40.250Z,4.50
2017-12-10T19:28:08.569Z,4.50
2017-12-10T19:30:36.803Z,4.50
2017-12-10T19:33:04.221Z,4.50
2017-12-10T19:35:31.690Z,4.60
2017-12-10T19:37:59.234Z,4.60
2017-12-10T19:40:26.629Z,4.60
2017-12-10T19:42:54.065Z,4.60
2017-12-10T19:45:21.581Z,4.60
2017-12-10T19:47:48.989Z,4.50
2017-12-10T19:50:16.447Z,4.50
2017-12-10T19:52:43.877Z,4.50
2017-12-10T19:55:11.293Z,4.60
2017-12-10T19:57:38.750Z,4.60
2017-12-10T20:00:06.193Z,4.60
2017-12-10T20:02:33.617Z,4.60
2017-12-10T20:05:01.858Z,4.50
2017-12-10T20:07:29.382Z,4.50
2017-12-10T20:09:56.797Z,4.50
2017-12-10T20:12:24.326Z,4.60
2017-12-10T20:14:51.742Z,4.50
2017-12-10T20:17:19.930Z,4.50
2017-12-10T20:19:47.422Z,4.40
2017-12-10T20:22:14.882Z,4.40
2017-12-10T20:24:42.297Z,4.40
2017-12-10T20:27:10.525Z,4.30
2017-12-10T20:29:37.942Z,4.30
2017-12-10T20:32:06.135Z,4.20
2017-12-10T20:34:34.068Z,4.20
2017-12-10T20:37:01.490Z,4.20
2017-12-10T20:39:28.951Z,4.10
2017-12-10T20:41:56.414Z,4.00
2017-12-10T20:44:23.889Z,4.00
2017-12-10T20:46:52.248Z,3.80
2017-12-10T20:49:19.676Z,3.80
2017-12-10T20:51:47.991Z,3.70
2017-12-10T20:54:15.469Z,3.70
2017-12-10T20:56:42.928Z,3.70
2017-12-10T20:59:10.354Z,3.60
2017-12-10T21:01:37.837Z,3.60
2017-12-10T21:04:05.297Z,3.70
2017-12-10T21:06:32.765Z,3.60
2017-12-10T21:09:00.189Z,3.70
2017-12-10T21:11:28.373Z,3.70
2017-12-10T21:13:55.868Z,3.70
2017-12-10T21:16:23.310Z,3.70
2017-12-10T21:18:50.731Z,3.70
2017-12-10T21:21:18.237Z,3.80
2017-12-10T21:23:45.653Z,3.70
2017-12-10T21:26:13.076Z,3.70
2017-12-10T21:28:40.533Z,3.70
2017-12-10T21:31:08.000Z,3.70
2017-12-10T21:33:35.421Z,3.70
2017-12-10T21:36:02.915Z,3.70
2017-12-10T21:38:30.386Z,3.70
2017-12-10T21:40:57.929Z,3.70
2017-12-10T21:43:25.343Z,3.70
2017-12-10T21:45:52.752Z,3.70
2017-12-10T21:48:20.180Z,3.70
2017-12-10T21:50:48.368Z,3.70
2017-12-10T21:53:16.590Z,3.60
2017-12-10T21:55:44.012Z,3.60
2017-12-10T21:58:12.214Z,3.60
2017-12-10T22:00:39.681Z,3.60
2017-12-10T22:03:07.122Z,3.60
2017-12-10T22:05:34.588Z,3.60
2017-12-10T22:08:02.002Z,3.60
2017-12-10T22:10:29.517Z,3.60
2017-12-10T22:12:56.941Z,3.60
2017-12-10T22:15:25.137Z,3.50
2017-12-10T22:17:52.577Z,3.40
2017-12-10T22:20:20.808Z,3.40
2017-12-10T22:22:48.249Z,3.40
2017-12-10T22:25:15.731Z,3.40
2017-12-10T22:27:43.206Z,3.40
2017-12-10T22:30:10.662Z,3.30
2017-12-10T22:32:38.086Z,3.20
2017-12-10T22:35:05.509Z,3.20
2017-12-10T22:37:32.934Z,3.20
2017-12-10T22:40:00.401Z,3.10
2017-12-10T22:42:27.850Z,3.10
2017-12-10T22:44:55.297Z,3.10
2017-12-10T22:47:22.774Z,3.00
2017-12-10T22:49:50.196Z,3.00
2017-12-10T22:52:18.502Z,3.00
2017-12-10T22:54:45.973Z,3.00
2017-12-10T22:57:13.443Z,2.90
2017-12-10T22:59:40.870Z,3.00
2017-12-10T23:02:09.125Z,2.90
2017-12-10T23:04:36.482Z,2.80
2017-12-10T23:07:04.014Z,2.80
2017-12-10T23:09:31.438Z,2.80
2017-12-10T23:11:58.918Z,2.80
2017-12-10T23:14:38.186Z,2.70
2017-12-10T23:17:05.601Z,2.70
2017-12-10T23:19:33.060Z,2.70
2017-12-10T23:22:00.557Z,2.70
2017-12-10T23:24:27.997Z,2.60
2017-12-10T23:26:55.470Z,2.50
2017-12-10T23:29:22.942Z,2.50
2017-12-10T23:31:50.386Z,2.50
2017-12-10T23:34:17.850Z,2.40
2017-12-10T23:36:45.298Z,2.40
2017-12-10T23:39:12.761Z,2.40
2017-12-10T23:41:40.221Z,2.50
2017-12-10T23:44:07.654Z,2.40
2017-12-10T23:46:35.837Z,2.40
2017-12-10T23:49:04.025Z,2.40
2017-12-10T23:51:31.466Z,2.40
2017-12-10T23:53:59.683Z,2.30
2017-12-10T23:56:27.143Z,2.30
2017-12-10T23:58:54.601Z,2.30
